Green Garnet — 3FEH6 — position and weather

sailwx.info

Track history (hours):
 
Tides and Currents Weather Stations Pressure Air Temp Water Temp Dewpoint Dewpoint Depression Visibility Wind Speed Wind Dir Waves Ship Positions

Green Garnet

Last reported at 2018-Feb-21 02:49 UTC. Time now 2018-Apr-26 13:03 UTC.
Position N 41°16' E 140°08'.
Warning: this ship's position is months out of date.

Length 209 m; draft 10.7 m.

Type: Ship. MMSI: 356345000.

Date/timePositionNaut miles runAvg speedWind from/ knotsBaromVisibWave heightAir tempDewpointWater temp
2018-Feb-21 02:49N 41°16' E 140°08'310.3
2018-Feb-21 02:29N 41°18' E 140°12'510.4
2018-Feb-21 02:00N 41°21' E 140°18'611.4
2018-Feb-21 01:30N 41°24' E 140°24'612.3
2018-Feb-21 00:59N 41°28' E 140°30'612.3
2018-Feb-21 00:30N 41°31' E 140°37'611.7
2018-Feb-21 00:00N 41°35' E 140°43'510.7
2018-Feb-20 23:30N 41°37' E 140°50'510.7
2018-Feb-20 23:00N 41°37' E 140°57'510.1
2018-Feb-20 22:31N 41°37' E 141°04'611.6
2018-Feb-20 22:00N 41°37' E 141°11'612.1
2018-Feb-20 21:30N 41°36' E 141°19'610.9
2018-Feb-20 21:00N 41°36' E 141°27'5 9.5
2018-Feb-20 20:31N 41°35' E 141°33'610.9
2018-Feb-20 19:59N 41°35' E 141°41'510.3
2018-Feb-20 19:28N 41°32' E 141°47'811.3
2018-Feb-20 18:45N 41°24' E 141°49'311.1
2018-Feb-20 18:30N 41°22' E 141°50'  
Track history (hours):
 
Tides and Currents Weather Stations Pressure Air Temp Water Temp Dewpoint Dewpoint Depression Visibility Wind Speed Wind Dir Waves Ship Positions

Green Garnet

Last reported at 2018-Feb-21 02:49 UTC. Time now 2018-Apr-26 13:03 UTC.
Position N 41°16' E 140°08'.
Warning: this ship's position is months out of date.

Length 209 m; draft 10.7 m.

Type: Ship. MMSI: 356345000.

Date/timePositionNaut miles runAvg speedWind from/ knotsBaromVisibWave heightAir tempDewpointWater temp
2018-Feb-21 02:49N 41°16' E 140°08'310.3
2018-Feb-21 02:29N 41°18' E 140°12'510.4
2018-Feb-21 02:00N 41°21' E 140°18'611.4
2018-Feb-21 01:30N 41°24' E 140°24'612.3
2018-Feb-21 00:59N 41°28' E 140°30'612.3
2018-Feb-21 00:30N 41°31' E 140°37'611.7
2018-Feb-21 00:00N 41°35' E 140°43'510.7
2018-Feb-20 23:30N 41°37' E 140°50'510.7
2018-Feb-20 23:00N 41°37' E 140°57'510.1
2018-Feb-20 22:31N 41°37' E 141°04'611.6
2018-Feb-20 22:00N 41°37' E 141°11'612.1
2018-Feb-20 21:30N 41°36' E 141°19'610.9
2018-Feb-20 21:00N 41°36' E 141°27'5 9.5
2018-Feb-20 20:31N 41°35' E 141°33'610.9
2018-Feb-20 19:59N 41°35' E 141°41'510.3
2018-Feb-20 19:28N 41°32' E 141°47'811.3
2018-Feb-20 18:45N 41°24' E 141°49'311.1
2018-Feb-20 18:30N 41°22' E 141°50'  

Dump ship's entire track history